Time;durP1;ratioP1;P1;durP2;ratioP2;P2;SDS_P1;SDS_P2;PMS_P1;PMS_P2;Temp;Humidity;BMP_temperature;BMP_pressure;BME280_temperature;BME280_humidity;BME280_pressure;Samples;Min_cycle;Max_cycle;Signal;HPM_P1;HPM_P2
2022/04/05 00:00:24;;;;;;;3.97;3.08;;;8.70;99.90;;;;;;5102907;28;20019;-58
2022/04/05 00:02:50;;;;;;;4.82;3.60;;;8.70;99.90;;;;;;5107217;28;20385;-58
2022/04/05 00:05:15;;;;;;;4.72;3.42;;;8.70;99.90;;;;;;5105974;28;20027;-58
2022/04/05 00:07:41;;;;;;;4.13;3.63;;;8.70;99.90;;;;;;5102570;28;20039;-60
2022/04/05 00:10:07;;;;;;;4.15;3.72;;;8.70;99.90;;;;;;5103827;28;20600;-56
2022/04/05 00:12:32;;;;;;;8.02;4.13;;;8.60;99.90;;;;;;5104315;28;20401;-60
2022/04/05 00:14:58;;;;;;;4.55;3.88;;;8.60;99.90;;;;;;5104725;28;20035;-60
2022/04/05 00:17:24;;;;;;;6.30;4.00;;;8.60;99.90;;;;;;5100953;28;20482;-59
2022/04/05 00:19:50;;;;;;;4.32;3.85;;;8.60;99.90;;;;;;5106225;28;20027;-60
2022/04/05 00:22:15;;;;;;;4.35;3.70;;;8.70;99.90;;;;;;5108288;28;20031;-62
2022/04/05 00:24:41;;;;;;;5.35;4.43;;;8.70;99.90;;;;;;5108769;28;20496;-58
2022/04/05 00:27:06;;;;;;;5.72;4.57;;;8.70;99.90;;;;;;5110716;28;20103;-60
2022/04/05 00:29:32;;;;;;;5.60;3.72;;;8.60;99.90;;;;;;5102956;28;20032;-59
2022/04/05 00:31:57;;;;;;;6.18;4.45;;;8.60;99.90;;;;;;5105961;28;20019;-58
2022/04/05 00:34:26;;;;;;;5.38;4.40;;;8.60;99.90;;;;;;5105695;28;20039;-59
2022/04/05 00:36:53;;;;;;;5.32;3.65;;;8.60;99.90;;;;;;5105316;28;20031;-58
2022/04/05 00:39:19;;;;;;;4.75;4.22;;;8.60;99.90;;;;;;5105960;28;20024;-60
2022/04/05 00:41:45;;;;;;;5.40;4.68;;;8.70;99.90;;;;;;5095756;28;20023;-59
2022/04/05 00:44:10;;;;;;;5.20;4.70;;;8.60;99.90;;;;;;5105188;28;20035;-58
2022/04/05 00:46:36;;;;;;;5.88;5.25;;;8.60;99.90;;;;;;5103671;28;20026;-60
2022/04/05 00:49:02;;;;;;;5.03;4.35;;;8.70;99.90;;;;;;5107317;28;20043;-59
2022/04/05 00:51:28;;;;;;;5.70;4.97;;;8.70;99.90;;;;;;5109216;28;20380;-60
2022/04/05 00:53:57;;;;;;;7.57;4.97;;;8.70;99.90;;;;;;5105515;28;20134;-60
2022/04/05 00:56:24;;;;;;;5.68;4.78;;;8.70;99.90;;;;;;5105710;28;20036;-59
2022/04/05 00:58:53;;;;;;;6.50;5.25;;;8.60;99.90;;;;;;5109852;28;20047;-59
2022/04/05 01:01:22;;;;;;;6.43;5.43;;;8.60;99.90;;;;;;5111112;28;20026;-61
2022/04/05 01:03:53;;;;;;;8.13;5.50;;;8.60;99.90;;;;;;5103754;28;20469;-60
2022/04/05 01:06:25;;;;;;;7.93;5.78;;;8.60;99.90;;;;;;5103852;28;20389;-57
2022/04/05 01:08:50;;;;;;;8.30;6.70;;;8.60;99.90;;;;;;5104956;28;20036;-55
2022/04/05 01:11:16;;;;;;;8.98;6.45;;;8.60;99.90;;;;;;5107020;28;20050;-58
2022/04/05 01:13:43;;;;;;;8.18;6.22;;;8.60;99.90;;;;;;5106785;28;20127;-59
2022/04/05 01:16:11;;;;;;;8.75;6.30;;;8.60;99.90;;;;;;5104568;28;20020;-58
2022/04/05 01:18:37;;;;;;;9.00;7.05;;;8.60;99.90;;;;;;5107638;28;20031;-58
2022/04/05 01:21:03;;;;;;;11.40;7.88;;;8.70;99.90;;;;;;5106208;28;20088;-60
2022/04/05 01:23:29;;;;;;;10.02;7.10;;;8.70;99.90;;;;;;5103859;28;20036;-58
2022/04/05 01:25:56;;;;;;;9.80;7.07;;;8.70;99.90;;;;;;5106138;28;20034;-58
2022/04/05 01:28:22;;;;;;;9.32;7.32;;;8.70;99.90;;;;;;5111761;28;20102;-58
2022/04/05 01:30:48;;;;;;;8.95;7.30;;;8.70;99.90;;;;;;5111397;28;20027;-57
2022/04/05 01:33:14;;;;;;;11.57;8.82;;;8.70;99.90;;;;;;5108891;28;20024;-57
2022/04/05 01:35:40;;;;;;;14.38;9.65;;;8.70;99.90;;;;;;5111265;28;20070;-57
2022/04/05 01:38:09;;;;;;;14.05;8.70;;;8.70;99.90;;;;;;5107270;28;20051;-59
2022/04/05 01:40:35;;;;;;;12.88;9.48;;;8.70;99.90;;;;;;5112392;28;20035;-58
2022/04/05 01:43:02;;;;;;;11.10;8.23;;;8.70;99.90;;;;;;5113091;28;20032;-59
2022/04/05 01:45:28;;;;;;;14.00;9.85;;;8.70;99.90;;;;;;5107805;28;20020;-60
2022/04/05 01:47:53;;;;;;;13.00;10.02;;;8.70;99.90;;;;;;5109376;28;20102;-57
2022/04/05 01:50:19;;;;;;;12.82;9.57;;;8.70;99.90;;;;;;5106933;28;20032;-53
2022/04/05 01:52:44;;;;;;;13.82;10.40;;;8.70;99.90;;;;;;5100214;28;20024;-54
2022/04/05 01:55:10;;;;;;;15.55;11.30;;;8.70;99.90;;;;;;5106039;28;20494;-56
2022/04/05 01:57:36;;;;;;;14.05;10.30;;;8.70;99.90;;;;;;5107963;28;20718;-58
2022/04/05 02:00:04;;;;;;;15.43;10.40;;;8.70;99.90;;;;;;5110606;27;20452;-58
2022/04/05 02:02:29;;;;;;;15.48;10.75;;;8.80;99.90;;;;;;5101375;28;20042;-59
2022/04/05 02:04:55;;;;;;;15.82;11.45;;;8.80;99.90;;;;;;5109210;28;20439;-59
2022/04/05 02:07:20;;;;;;;15.77;11.20;;;8.80;99.90;;;;;;5108055;28;20027;-56
2022/04/05 02:09:48;;;;;;;16.67;12.07;;;8.80;99.90;;;;;;5112050;28;20031;-55
2022/04/05 02:12:15;;;;;;;18.30;12.40;;;8.90;99.90;;;;;;5106599;28;20024;-55
2022/04/05 02:14:40;;;;;;;16.40;12.20;;;8.80;99.90;;;;;;5105053;28;20547;-58
2022/04/05 02:17:07;;;;;;;18.80;13.43;;;8.90;99.90;;;;;;5103301;28;20031;-57
2022/04/05 02:19:34;;;;;;;17.42;12.32;;;8.80;99.90;;;;;;5104897;28;20045;-57
2022/04/05 02:22:00;;;;;;;18.15;12.00;;;8.80;99.90;;;;;;5112666;28;20535;-58
2022/04/05 02:24:25;;;;;;;16.95;12.13;;;8.90;99.90;;;;;;5102107;28;20028;-56
2022/04/05 02:26:51;;;;;;;15.48;11.70;;;8.80;99.90;;;;;;5107557;28;20481;-59
2022/04/05 02:29:17;;;;;;;16.48;11.35;;;8.80;99.90;;;;;;5107140;28;20050;-56
2022/04/05 02:31:42;;;;;;;16.80;12.52;;;8.80;99.90;;;;;;5109759;28;20031;-59
2022/04/05 02:34:09;;;;;;;18.15;12.77;;;8.80;99.90;;;;;;5108177;28;20016;-56
2022/04/05 02:36:35;;;;;;;20.15;13.68;;;8.80;99.90;;;;;;5107542;28;20035;-57
2022/04/05 02:39:01;;;;;;;18.67;12.68;;;8.80;99.90;;;;;;5104574;28;20020;-57
2022/04/05 02:41:27;;;;;;;20.10;12.65;;;8.90;99.90;;;;;;5109267;28;20370;-59
2022/04/05 02:43:53;;;;;;;18.67;13.48;;;8.90;99.90;;;;;;5111206;28;20042;-58
2022/04/05 02:46:18;;;;;;;19.60;13.27;;;8.90;99.90;;;;;;5105479;28;20023;-59
2022/04/05 02:48:45;;;;;;;21.77;15.20;;;8.90;99.90;;;;;;5108389;28;20035;-61
2022/04/05 02:51:14;;;;;;;22.90;14.73;;;8.90;99.90;;;;;;5112057;28;20476;-59
2022/04/05 02:53:40;;;;;;;22.83;16.00;;;9.00;99.90;;;;;;5102523;28;20030;-57
2022/04/05 02:56:07;;;;;;;22.38;15.35;;;9.00;99.90;;;;;;5111904;28;20034;-60
2022/04/05 02:58:34;;;;;;;22.02;15.68;;;9.00;99.90;;;;;;5105632;28;20396;-53
2022/04/05 03:01:00;;;;;;;23.50;16.45;;;9.00;99.90;;;;;;5111955;22;20044;-64
2022/04/05 03:03:25;;;;;;;26.45;17.25;;;9.00;99.90;;;;;;5088107;28;20031;-63
2022/04/05 03:05:51;;;;;;;25.13;16.92;;;9.00;99.90;;;;;;5089569;28;20028;-63
2022/04/05 03:08:17;;;;;;;26.55;17.10;;;9.00;99.90;;;;;;5082853;28;20458;-64
2022/04/05 03:10:42;;;;;;;26.33;18.30;;;9.00;99.90;;;;;;5079753;28;20459;-63
2022/04/05 03:13:08;;;;;;;26.30;17.70;;;9.10;99.90;;;;;;5082029;28;20115;-64
2022/04/05 03:15:33;;;;;;;26.00;17.83;;;9.10;99.90;;;;;;5068451;28;20096;-63
2022/04/05 03:17:59;;;;;;;24.10;16.70;;;9.10;99.90;;;;;;5064045;28;20110;-64
2022/04/05 03:20:25;;;;;;;31.27;18.48;;;9.10;99.90;;;;;;5079807;28;20100;-64
2022/04/05 03:22:52;;;;;;;27.88;18.10;;;9.20;99.90;;;;;;5076517;28;20047;-64
2022/04/05 03:25:18;;;;;;;28.95;18.58;;;9.10;99.90;;;;;;5069130;28;20053;-63
2022/04/05 03:27:44;;;;;;;27.02;16.67;;;9.20;99.90;;;;;;5069846;28;20024;-63
2022/04/05 03:30:14;;;;;;;25.83;17.17;;;9.20;99.90;;;;;;5067997;28;20067;-63
2022/04/05 03:32:40;;;;;;;28.63;18.10;;;9.20;99.90;;;;;;5078873;28;20016;-64
2022/04/05 03:35:07;;;;;;;29.65;16.50;;;9.20;99.90;;;;;;5074736;28;20402;-63
2022/04/05 03:37:32;;;;;;;27.40;16.10;;;9.30;99.90;;;;;;5071037;28;20021;-64
2022/04/05 03:39:59;;;;;;;27.55;17.50;;;9.30;99.90;;;;;;5066615;28;20032;-63
2022/04/05 03:42:25;;;;;;;25.92;15.90;;;9.30;99.90;;;;;;5080514;28;20024;-65
2022/04/05 03:44:50;;;;;;;29.88;18.50;;;9.40;99.90;;;;;;5069426;28;20125;-64
2022/04/05 03:47:16;;;;;;;29.83;16.73;;;9.40;99.90;;;;;;5069259;28;20020;-65
2022/04/05 03:49:42;;;;;;;28.40;16.90;;;9.40;99.90;;;;;;5073477;28;20031;-65
2022/04/05 03:52:08;;;;;;;30.42;17.40;;;9.50;99.90;;;;;;5069353;28;20036;-64
2022/04/05 03:54:33;;;;;;;29.15;17.42;;;9.50;99.90;;;;;;5075979;28;20556;-64
2022/04/05 03:56:59;;;;;;;35.25;19.38;;;9.50;99.90;;;;;;5071118;28;20032;-64
2022/04/05 03:59:25;;;;;;;37.53;19.83;;;9.50;99.90;;;;;;5067000;28;20056;-64
2022/04/05 04:01:50;;;;;;;36.10;20.27;;;9.50;99.90;;;;;;5072017;28;20514;-63
2022/04/05 04:04:16;;;;;;;35.95;21.02;;;9.50;99.90;;;;;;5076070;28;20075;-64
2022/04/05 04:06:41;;;;;;;35.03;21.60;;;9.50;99.90;;;;;;5072072;28;20525;-64
2022/04/05 04:09:07;;;;;;;35.65;21.63;;;9.60;99.90;;;;;;5072407;28;20043;-64
2022/04/05 04:11:33;;;;;;;34.47;21.52;;;9.60;99.90;;;;;;5069474;28;20025;-64
2022/04/05 04:13:58;;;;;;;36.28;21.20;;;9.60;99.90;;;;;;5067045;28;20414;-67
2022/04/05 04:16:25;;;;;;;35.53;20.80;;;9.60;99.90;;;;;;5069200;28;20059;-63
2022/04/05 04:18:50;;;;;;;35.22;22.90;;;9.60;99.90;;;;;;5068580;28;20557;-64
2022/04/05 04:21:16;;;;;;;35.92;22.58;;;9.60;99.90;;;;;;5075427;28;20100;-63
2022/04/05 04:23:42;;;;;;;38.90;24.17;;;9.60;99.90;;;;;;5069431;28;20052;-64
2022/04/05 04:26:07;;;;;;;35.10;21.63;;;9.70;99.90;;;;;;5069697;28;20100;-64
2022/04/05 04:28:33;;;;;;;37.97;22.38;;;9.70;99.90;;;;;;5078644;28;20024;-64
2022/04/05 04:30:58;;;;;;;36.53;22.13;;;9.70;99.90;;;;;;5068867;28;20029;-64
2022/04/05 04:33:24;;;;;;;36.92;21.88;;;9.70;99.90;;;;;;5075302;28;20043;-62
2022/04/05 04:35:50;;;;;;;41.28;23.85;;;9.70;99.90;;;;;;5072347;28;20040;-64
2022/04/05 04:38:16;;;;;;;37.35;22.67;;;9.70;99.90;;;;;;5072044;28;20060;-63
2022/04/05 04:40:46;;;;;;;40.92;22.05;;;9.70;99.90;;;;;;5073897;28;20052;-63
2022/04/05 04:43:14;;;;;;;41.53;25.17;;;9.70;99.90;;;;;;5073642;28;20487;-63
2022/04/05 04:45:39;;;;;;;45.35;25.08;;;9.70;99.90;;;;;;5068134;28;20035;-64
2022/04/05 04:48:05;;;;;;;45.65;26.75;;;9.80;99.90;;;;;;5072204;28;20036;-63
2022/04/05 04:50:30;;;;;;;40.35;24.00;;;9.80;99.90;;;;;;5079928;28;20424;-63
2022/04/05 04:52:56;;;;;;;42.90;24.88;;;9.80;99.90;;;;;;5070272;28;20082;-63
2022/04/05 04:55:23;;;;;;;39.35;24.55;;;9.80;99.90;;;;;;5069625;28;20067;-63
2022/04/05 04:57:49;;;;;;;47.75;25.95;;;9.80;99.90;;;;;;5063743;28;20028;-62
2022/04/05 05:00:15;;;;;;;43.10;24.75;;;9.90;99.90;;;;;;5076267;28;20048;-64
2022/04/05 05:02:47;;;;;;;41.72;23.77;;;9.90;99.90;;;;;;5074940;28;20038;-64
2022/04/05 05:05:16;;;;;;;39.85;22.92;;;9.80;99.90;;;;;;5071161;28;20493;-63
2022/04/05 05:07:44;;;;;;;41.92;23.58;;;9.80;99.90;;;;;;5067606;28;20037;-63
2022/04/05 05:10:11;;;;;;;38.55;22.10;;;9.90;99.90;;;;;;5070734;28;20025;-65
2022/04/05 05:12:40;;;;;;;42.05;24.67;;;9.80;99.90;;;;;;5066132;28;20035;-65
2022/04/05 05:15:13;;;;;;;41.15;24.30;;;9.80;99.90;;;;;;5078105;28;20025;-64
2022/04/05 05:17:39;;;;;;;40.88;24.42;;;9.80;99.90;;;;;;5066883;28;20497;-64
2022/04/05 05:20:05;;;;;;;43.40;23.90;;;9.90;99.90;;;;;;5079897;28;20162;-64
2022/04/05 05:22:31;;;;;;;40.70;24.42;;;9.80;99.90;;;;;;5069251;28;20401;-65
2022/04/05 05:24:57;;;;;;;38.33;22.42;;;9.90;99.90;;;;;;5067718;28;20036;-61
2022/04/05 05:27:22;;;;;;;41.75;22.23;;;9.90;99.90;;;;;;5073389;28;20663;-63
2022/04/05 05:29:48;;;;;;;43.40;24.77;;;9.90;99.90;;;;;;5083885;28;20036;-62
2022/04/05 05:32:13;;;;;;;39.33;22.33;;;9.90;99.90;;;;;;5067495;28;20098;-63
2022/04/05 05:34:39;;;;;;;43.55;24.77;;;9.90;99.90;;;;;;5070041;28;20522;-63
2022/04/05 05:37:05;;;;;;;41.17;23.80;;;9.90;99.90;;;;;;5071465;28;20035;-61
2022/04/05 05:39:32;;;;;;;45.83;26.23;;;9.90;99.90;;;;;;5073737;28;20107;-62
2022/04/05 05:41:58;;;;;;;42.78;24.77;;;9.90;99.90;;;;;;5073592;28;20520;-62
2022/04/05 05:44:24;;;;;;;45.35;25.65;;;9.90;99.90;;;;;;5066916;28;20023;-64
2022/04/05 05:46:50;;;;;;;42.75;25.77;;;9.90;99.90;;;;;;5069062;28;20115;-61
2022/04/05 05:49:16;;;;;;;41.63;24.52;;;9.90;99.90;;;;;;5069269;28;20111;-63
2022/04/05 05:51:41;;;;;;;39.88;23.70;;;9.90;99.90;;;;;;5081872;28;20685;-64
2022/04/05 05:54:07;;;;;;;38.28;23.27;;;9.90;99.90;;;;;;5071787;28;20119;-63
2022/04/05 05:56:33;;;;;;;35.50;21.83;;;9.90;99.90;;;;;;5069946;28;20030;-63
2022/04/05 05:58:59;;;;;;;38.55;21.58;;;9.90;99.90;;;;;;5070634;28;20033;-61
2022/04/05 06:01:24;;;;;;;40.25;23.00;;;9.90;99.90;;;;;;5071768;28;20029;-64
2022/04/05 06:03:50;;;;;;;39.88;22.65;;;9.90;99.90;;;;;;5068993;28;20098;-63
2022/04/05 06:06:16;;;;;;;37.00;22.00;;;9.90;99.90;;;;;;5067955;28;20488;-64
2022/04/05 06:08:42;;;;;;;41.58;21.63;;;9.90;99.90;;;;;;5071603;28;20036;-64
2022/04/05 06:11:07;;;;;;;35.25;21.10;;;9.90;99.90;;;;;;5074164;28;20028;-63
2022/04/05 06:13:34;;;;;;;42.47;22.20;;;9.90;99.90;;;;;;5071328;28;20059;-63
2022/04/05 06:16:00;;;;;;;35.03;20.90;;;10.00;99.90;;;;;;5068886;28;20502;-64
2022/04/05 06:18:25;;;;;;;35.15;20.08;;;10.00;99.90;;;;;;5070884;28;20035;-64
2022/04/05 06:20:51;;;;;;;33.45;19.50;;;10.00;99.90;;;;;;5072676;28;20131;-65
2022/04/05 06:23:16;;;;;;;34.83;20.63;;;10.00;99.90;;;;;;5075712;28;20487;-63
2022/04/05 06:25:42;;;;;;;33.88;20.92;;;10.00;99.90;;;;;;5068376;28;20478;-65
2022/04/05 06:28:09;;;;;;;34.53;19.40;;;10.00;99.90;;;;;;5065698;28;20104;-64
2022/04/05 06:30:37;;;;;;;33.00;20.33;;;10.00;99.90;;;;;;5070359;28;20390;-64
2022/04/05 06:33:10;;;;;;;33.75;20.38;;;10.00;99.90;;;;;;5071250;28;20025;-63
2022/04/05 06:35:47;;;;;;;31.40;19.45;;;10.00;99.90;;;;;;5068920;28;20075;-64
2022/04/05 06:38:13;;;;;;;31.90;19.35;;;10.00;99.90;;;;;;5071038;28;20031;-63
2022/04/05 06:40:41;;;;;;;37.40;19.75;;;10.00;99.90;;;;;;5071170;28;20121;-63
2022/04/05 06:43:07;;;;;;;31.08;17.90;;;10.00;99.90;;;;;;5070508;28;20021;-64
2022/04/05 06:45:33;;;;;;;28.25;17.30;;;10.10;99.90;;;;;;5071021;28;20394;-64
2022/04/05 06:47:59;;;;;;;32.20;18.88;;;10.10;99.90;;;;;;5070532;28;20032;-63
2022/04/05 06:50:25;;;;;;;30.45;18.50;;;10.10;99.90;;;;;;5078585;28;20032;-64
2022/04/05 06:52:52;;;;;;;31.50;17.83;;;10.10;99.90;;;;;;5083176;28;20089;-62
2022/04/05 06:55:18;;;;;;;32.45;18.67;;;10.10;99.90;;;;;;5077540;28;20138;-63
2022/04/05 06:57:44;;;;;;;31.95;18.20;;;10.10;99.90;;;;;;5070557;28;20024;-64
2022/04/05 07:00:11;;;;;;;29.38;18.10;;;10.10;99.90;;;;;;5068939;28;20028;-65
2022/04/05 07:02:37;;;;;;;33.78;18.10;;;10.10;99.90;;;;;;5072488;28;20512;-63
2022/04/05 07:05:04;;;;;;;30.85;17.90;;;10.10;99.90;;;;;;5089941;28;20043;-62
2022/04/05 07:07:29;;;;;;;28.80;17.17;;;10.20;99.90;;;;;;5070810;28;20121;-62
2022/04/05 07:09:55;;;;;;;29.95;17.02;;;10.20;99.90;;;;;;5071171;28;20475;-63
2022/04/05 07:12:21;;;;;;;29.48;17.42;;;10.20;99.90;;;;;;5084494;28;20063;-64
2022/04/05 07:14:46;;;;;;;26.02;16.13;;;10.20;99.90;;;;;;5075747;28;20035;-65
2022/04/05 07:17:12;;;;;;;28.23;16.30;;;10.20;99.90;;;;;;5071017;28;20390;-62
2022/04/05 07:19:37;;;;;;;26.90;15.82;;;10.20;99.90;;;;;;5072788;28;20108;-62
2022/04/05 07:22:03;;;;;;;25.90;15.80;;;10.20;99.90;;;;;;5070837;28;20035;-62
2022/04/05 07:24:29;;;;;;;25.48;14.27;;;10.30;99.90;;;;;;5069688;28;20041;-63
2022/04/05 07:26:55;;;;;;;25.30;15.75;;;10.30;99.90;;;;;;5070663;28;20488;-63
2022/04/05 07:29:21;;;;;;;24.85;14.98;;;10.30;99.90;;;;;;5075871;28;20066;-63
2022/04/05 07:31:47;;;;;;;31.00;15.63;;;10.30;99.90;;;;;;5090172;28;20024;-63
2022/04/05 07:34:12;;;;;;;26.23;16.00;;;10.30;99.90;;;;;;5089788;28;20387;-63
2022/04/05 07:36:38;;;;;;;25.90;15.23;;;10.30;99.90;;;;;;5089969;28;20028;-62
2022/04/05 07:39:04;;;;;;;28.58;15.00;;;10.30;99.90;;;;;;5070310;28;20090;-60
2022/04/05 07:41:30;;;;;;;27.33;15.18;;;10.40;99.90;;;;;;5070358;28;20055;-61
2022/04/05 07:43:55;;;;;;;27.02;15.13;;;10.40;99.90;;;;;;5086030;28;20494;-63
2022/04/05 07:46:21;;;;;;;28.65;15.02;;;10.40;99.90;;;;;;5089737;28;20143;-63
2022/04/05 07:48:49;;;;;;;29.88;15.68;;;10.30;99.90;;;;;;5080351;28;20078;-63
2022/04/05 07:51:16;;;;;;;24.70;13.73;;;10.40;99.90;;;;;;5070238;28;20031;-63
2022/04/05 07:53:42;;;;;;;26.73;13.98;;;10.40;99.90;;;;;;5077612;28;20026;-60
2022/04/05 07:56:09;;;;;;;21.58;13.10;;;10.40;99.90;;;;;;5089881;28;20103;-63
2022/04/05 07:58:34;;;;;;;26.23;14.18;;;10.40;99.90;;;;;;5080400;28;20017;-62
2022/04/05 08:01:00;;;;;;;22.55;13.77;;;10.40;99.90;;;;;;5087878;28;20698;-63
2022/04/05 08:03:27;;;;;;;29.02;14.63;;;10.40;99.90;;;;;;5069546;28;20098;-63
2022/04/05 08:05:53;;;;;;;22.85;12.82;;;10.40;99.90;;;;;;5070241;28;20099;-62
2022/04/05 08:08:19;;;;;;;24.88;13.10;;;10.50;99.90;;;;;;5076361;28;20455;-62
2022/04/05 08:10:45;;;;;;;30.13;13.57;;;10.50;99.90;;;;;;5079479;28;20092;-64
2022/04/05 08:13:10;;;;;;;22.25;12.98;;;10.50;99.90;;;;;;5082048;28;20067;-62
2022/04/05 08:15:36;;;;;;;19.95;12.10;;;10.50;99.90;;;;;;5089032;28;20028;-62
2022/04/05 08:18:01;;;;;;;24.05;12.27;;;10.50;99.90;;;;;;5088751;28;20025;-63
2022/04/05 08:20:27;;;;;;;20.38;11.23;;;10.50;99.90;;;;;;5089340;28;20024;-62
2022/04/05 08:22:52;;;;;;;15.48;10.35;;;10.50;99.90;;;;;;5084807;28;20074;-65
2022/04/05 08:25:18;;;;;;;15.40;10.40;;;10.50;99.90;;;;;;5069584;28;20020;-62
2022/04/05 08:27:47;;;;;;;18.13;11.65;;;10.50;99.90;;;;;;5069721;28;20029;-63
2022/04/05 08:30:15;;;;;;;16.42;10.90;;;10.50;99.90;;;;;;5070119;28;20013;-63
2022/04/05 08:32:42;;;;;;;17.83;11.82;;;10.50;99.90;;;;;;5069572;28;20421;-64
2022/04/05 08:35:10;;;;;;;19.02;12.27;;;10.60;99.90;;;;;;5069055;28;20035;-63
2022/04/05 08:37:35;;;;;;;18.52;11.82;;;10.60;99.90;;;;;;5076420;28;20046;-61
2022/04/05 08:40:06;;;;;;;19.05;13.23;;;10.70;99.90;;;;;;5088632;28;20036;-63
2022/04/05 08:42:33;;;;;;;19.50;12.50;;;10.70;99.90;;;;;;5078753;28;20020;-62
2022/04/05 08:45:00;;;;;;;20.85;13.95;;;10.70;99.90;;;;;;5078002;28;20038;-63
2022/04/05 08:47:27;;;;;;;22.15;14.88;;;10.80;99.90;;;;;;5083075;28;20890;-60
2022/04/05 08:49:54;;;;;;;23.15;15.70;;;10.90;99.90;;;;;;5093250;28;20028;-62
2022/04/05 08:52:20;;;;;;;23.60;16.58;;;11.00;99.90;;;;;;5086999;28;20066;-62
2022/04/05 08:54:45;;;;;;;23.50;15.75;;;11.00;99.90;;;;;;5073770;28;20121;-62
2022/04/05 08:57:11;;;;;;;26.48;16.30;;;11.00;99.90;;;;;;5077410;28;20025;-60
2022/04/05 08:59:36;;;;;;;23.70;16.77;;;11.10;99.90;;;;;;5088486;23;20090;-83
2022/04/05 09:02:02;;;;;;;24.40;17.25;;;11.10;99.90;;;;;;5058787;22;20664;-61
2022/04/05 09:04:34;;;;;;;26.55;18.05;;;11.10;99.90;;;;;;5067378;28;20013;-62
2022/04/05 09:07:21;;;;;;;24.70;17.45;;;11.20;99.90;;;;;;5067919;28;20033;-61
2022/04/05 09:10:07;;;;;;;23.80;17.02;;;11.30;99.90;;;;;;5084403;28;20098;-60
2022/04/05 09:12:46;;;;;;;23.75;16.48;;;11.30;99.90;;;;;;5072021;28;20478;-61
2022/04/05 09:15:21;;;;;;;26.02;17.08;;;11.40;99.90;;;;;;5072763;28;20102;-62
2022/04/05 09:17:47;;;;;;;;;;;11.40;99.90;;;;;;5073358;28;20032;-62
2022/04/05 09:20:14;;;;;;;25.00;16.88;;;11.40;99.90;;;;;;5071911;28;19904;-61
2022/04/05 09:22:41;;;;;;;23.77;16.92;;;11.40;99.90;;;;;;5072313;28;20113;-62
2022/04/05 09:25:15;;;;;;;23.33;17.33;;;11.40;99.90;;;;;;5071724;28;20056;-61
2022/04/05 09:27:55;;;;;;;31.33;18.88;;;11.50;99.90;;;;;;5072596;28;20109;-62
2022/04/05 09:30:31;;;;;;;23.73;17.80;;;11.50;99.90;;;;;;5071839;28;20013;-64
2022/04/05 09:32:58;;;;;;;22.92;16.50;;;11.50;99.90;;;;;;5072050;28;20397;-64
2022/04/05 09:35:41;;;;;;;24.98;17.77;;;11.40;99.90;;;;;;5071657;28;20031;-64
2022/04/05 09:38:17;;;;;;;25.50;17.55;;;11.50;99.90;;;;;;5071753;28;20055;-64
2022/04/05 09:40:43;;;;;;;24.77;17.80;;;11.50;99.90;;;;;;5071981;28;20016;-64
2022/04/05 09:43:12;;;;;;;24.55;17.77;;;11.50;99.90;;;;;;5071618;28;20069;-64
2022/04/05 09:45:47;;;;;;;24.55;17.08;;;11.50;99.90;;;;;;5071615;28;20445;-65
2022/04/05 09:48:14;;;;;;;28.25;17.92;;;11.50;99.90;;;;;;5071701;28;20028;-65
2022/04/05 09:51:12;;;;;;;26.63;16.80;;;11.50;99.90;;;;;;5072163;28;20028;-64
2022/04/05 09:53:42;;;;;;;27.42;17.63;;;11.50;99.90;;;;;;5068911;28;20108;-63
2022/04/05 09:56:14;;;;;;;24.48;15.93;;;11.50;99.90;;;;;;5072122;28;20032;-64
2022/04/05 09:58:51;;;;;;;27.13;16.73;;;11.40;99.90;;;;;;5072011;28;20028;-66
2022/04/05 10:01:19;;;;;;;22.25;15.52;;;11.40;99.90;;;;;;5072107;28;20037;-65
2022/04/05 10:04:00;;;;;;;23.13;15.98;;;11.40;99.90;;;;;;5071208;28;20097;-64
2022/04/05 10:06:28;;;;;;;25.30;14.70;;;11.40;99.90;;;;;;5071241;28;20027;-64
2022/04/05 10:08:55;;;;;;;19.70;15.43;;;11.30;99.90;;;;;;5071485;28;20401;-64
2022/04/05 10:11:24;;;;;;;22.60;15.48;;;11.30;99.90;;;;;;5071458;28;20035;-64
2022/04/05 10:13:50;;;;;;;22.75;14.57;;;11.30;99.90;;;;;;5070762;28;20116;-64
2022/04/05 10:16:17;;;;;;;18.20;13.98;;;11.40;99.90;;;;;;5071593;28;20099;-65
2022/04/05 10:18:46;;;;;;;20.50;13.75;;;11.30;99.90;;;;;;5070927;28;20033;-64
2022/04/05 10:21:11;;;;;;;21.55;14.73;;;11.30;99.90;;;;;;5052538;28;20025;-63
2022/04/05 10:23:41;;;;;;;19.63;13.80;;;11.30;99.90;;;;;;5071150;28;20031;-64
2022/04/05 10:26:09;;;;;;;23.98;14.35;;;11.40;99.90;;;;;;5070907;28;20351;-64
2022/04/05 10:28:35;;;;;;;19.33;13.40;;;11.30;99.90;;;;;;5071205;28;20028;-64
2022/04/05 10:31:14;;;;;;;18.35;13.82;;;11.30;99.90;;;;;;5071157;28;20073;-66
2022/04/05 10:34:18;;;;;;;19.10;13.45;;;11.40;99.90;;;;;;5070868;28;20040;-63
2022/04/05 10:37:10;;;;;;;17.98;13.70;;;11.40;99.90;;;;;;5071009;28;20038;-64
2022/04/05 10:39:37;;;;;;;18.27;13.48;;;11.40;99.90;;;;;;5070999;28;20063;-65
2022/04/05 10:42:20;;;;;;;23.67;14.98;;;11.70;99.90;;;;;;5070965;28;20036;-64
2022/04/05 10:45:09;;;;;;;19.92;14.38;;;11.90;99.90;;;;;;5066482;28;20465;-64
2022/04/05 10:47:56;;;;;;;18.50;13.65;;;11.90;99.90;;;;;;5071336;28;20382;-65
2022/04/05 10:50:22;;;;;;;20.42;13.52;;;12.00;99.90;;;;;;5070166;28;20171;-65
2022/04/05 10:53:11;;;;;;;22.55;13.95;;;12.00;99.90;;;;;;5068151;28;20646;-65
2022/04/05 10:56:10;;;;;;;22.30;14.73;;;12.00;99.90;;;;;;5070726;28;20024;-65
2022/04/05 10:58:35;;;;;;;22.05;13.65;;;12.00;99.90;;;;;;5063653;28;20020;-64
2022/04/05 11:01:19;;;;;;;21.85;14.80;;;12.10;99.90;;;;;;5071200;28;20379;-65
2022/04/05 11:04:16;;;;;;;20.95;13.90;;;12.00;99.90;;;;;;5069501;28;20032;-64
2022/04/05 11:07:02;;;;;;;23.23;16.27;;;12.00;99.90;;;;;;5070189;28;20086;-65
2022/04/05 11:09:33;;;;;;;25.50;15.93;;;12.00;99.90;;;;;;5066717;28;20074;-65
2022/04/05 11:12:02;;;;;;;22.80;17.10;;;11.90;99.90;;;;;;5070524;28;20028;-65
2022/04/05 11:14:38;;;;;;;20.92;14.15;;;11.90;99.90;;;;;;5069930;28;20667;-63
2022/04/05 11:17:06;;;;;;;21.77;14.70;;;12.00;99.90;;;;;;5070171;28;20113;-64
2022/04/05 11:19:35;;;;;;;23.65;13.70;;;12.10;99.90;;;;;;5069746;28;20025;-65
2022/04/05 11:22:34;;;;;;;25.52;15.60;;;12.10;99.90;;;;;;5070046;28;20039;-65
2022/04/05 11:25:04;;;;;;;22.88;14.60;;;12.10;99.90;;;;;;5070414;28;20027;-65
2022/04/05 11:27:38;;;;;;;17.30;13.02;;;12.20;99.90;;;;;;5052051;28;20085;-64
2022/04/05 11:30:27;;;;;;;20.67;13.23;;;12.20;99.90;;;;;;5064357;28;20025;-65
2022/04/05 11:33:26;;;;;;;16.85;12.55;;;12.20;99.90;;;;;;5069655;28;20039;-65
2022/04/05 11:36:10;;;;;;;16.65;12.65;;;12.30;99.90;;;;;;5069855;28;20032;-64
2022/04/05 11:38:49;;;;;;;17.77;11.90;;;12.40;99.90;;;;;;5070171;28;20572;-64
2022/04/05 11:41:21;;;;;;;16.35;11.65;;;12.40;99.90;;;;;;5050629;28;20490;-64
2022/04/05 11:43:50;;;;;;;21.10;13.02;;;12.40;99.90;;;;;;5061606;28;20028;-64
2022/04/05 11:46:20;;;;;;;17.55;12.38;;;12.50;99.90;;;;;;5069607;28;20104;-65
2022/04/05 11:48:49;;;;;;;20.27;11.98;;;12.60;99.90;;;;;;5068711;28;20051;-64
2022/04/05 11:51:17;;;;;;;15.07;11.45;;;12.60;99.90;;;;;;5070014;28;20448;-64
2022/04/05 11:53:44;;;;;;;16.90;11.98;;;12.60;99.90;;;;;;5068660;28;20040;-64
2022/04/05 11:56:23;;;;;;;14.05;11.10;;;12.60;99.90;;;;;;5069616;28;20031;-64
2022/04/05 11:58:56;;;;;;;13.20;10.95;;;12.70;99.90;;;;;;5068770;28;20063;-63
2022/04/05 12:01:30;;;;;;;16.02;10.50;;;12.70;99.90;;;;;;5063203;28;20093;-63
2022/04/05 12:04:01;;;;;;;14.38;11.15;;;12.60;99.90;;;;;;5068956;28;20033;-63
2022/04/05 12:06:33;;;;;;;14.68;11.20;;;12.50;99.90;;;;;;5066329;28;20095;-66
2022/04/05 12:09:02;;;;;;;13.82;9.65;;;12.50;99.90;;;;;;5063049;28;20024;-62
2022/04/05 12:11:30;;;;;;;14.93;9.02;;;12.50;99.90;;;;;;5065883;28;20021;-63
2022/04/05 12:14:09;;;;;;;12.10;9.27;;;12.40;99.90;;;;;;5059642;28;20448;-64
2022/04/05 12:16:47;;;;;;;15.05;9.88;;;12.40;99.90;;;;;;5064369;28;20035;-64
2022/04/05 12:19:18;;;;;;;12.27;8.88;;;12.40;99.90;;;;;;5044622;28;20087;-64
2022/04/05 12:21:44;;;;;;;11.90;9.38;;;12.50;99.90;;;;;;5067129;28;20646;-64
2022/04/05 12:24:10;;;;;;;12.60;9.63;;;12.40;99.90;;;;;;5068711;28;20070;-64
2022/04/05 12:26:35;;;;;;;16.13;9.90;;;12.40;99.90;;;;;;5064471;28;20058;-64
2022/04/05 12:29:01;;;;;;;13.77;9.77;;;12.30;99.90;;;;;;5066664;28;20047;-64
2022/04/05 12:31:28;;;;;;;14.88;9.88;;;12.40;99.90;;;;;;5064239;28;20028;-64
2022/04/05 12:34:05;;;;;;;12.90;9.65;;;12.40;99.90;;;;;;5062103;28;20051;-64
2022/04/05 12:36:34;;;;;;;15.02;10.25;;;12.40;99.90;;;;;;5067432;28;20033;-64
2022/04/05 12:39:01;;;;;;;15.32;10.63;;;12.40;99.90;;;;;;5062801;28;20095;-63
2022/04/05 12:41:26;;;;;;;13.68;10.10;;;12.40;99.90;;;;;;5058358;28;20104;-64